sensor_id;sensor_type;location;lat;lon;timestamp;P1;durP1;ratioP1;P2;durP2;ratioP2
13441;SDS011;6793;55.662;13.114;2022-08-21T00:01:30;0.10;;;0.10;;
13441;SDS011;6793;55.662;13.114;2022-08-21T00:04:03;0.10;;;0.10;;
13441;SDS011;6793;55.662;13.114;2022-08-21T00:06:30;0.10;;;0.10;;
13441;SDS011;6793;55.662;13.114;2022-08-21T00:08:58;0.10;;;0.10;;
13441;SDS011;6793;55.662;13.114;2022-08-21T00:11:25;0.10;;;0.10;;
13441;SDS011;6793;55.662;13.114;2022-08-21T00:13:53;0.10;;;0.10;;
13441;SDS011;6793;55.662;13.114;2022-08-21T00:16:20;0.10;;;0.10;;
13441;SDS011;6793;55.662;13.114;2022-08-21T00:18:47;0.10;;;0.10;;
13441;SDS011;6793;55.662;13.114;2022-08-21T00:21:16;0.10;;;0.10;;
13441;SDS011;6793;55.662;13.114;2022-08-21T00:23:43;0.10;;;0.10;;
13441;SDS011;6793;55.662;13.114;2022-08-21T00:26:10;0.15;;;0.15;;
13441;SDS011;6793;55.662;13.114;2022-08-21T00:28:37;0.10;;;0.10;;
13441;SDS011;6793;55.662;13.114;2022-08-21T00:31:05;0.10;;;0.10;;
13441;SDS011;6793;55.662;13.114;2022-08-21T00:33:32;0.10;;;0.10;;
13441;SDS011;6793;55.662;13.114;2022-08-21T00:35:59;0.10;;;0.10;;
13441;SDS011;6793;55.662;13.114;2022-08-21T00:38:28;0.10;;;0.10;;
13441;SDS011;6793;55.662;13.114;2022-08-21T00:40:56;0.10;;;0.10;;
13441;SDS011;6793;55.662;13.114;2022-08-21T00:43:25;0.10;;;0.10;;
13441;SDS011;6793;55.662;13.114;2022-08-21T00:45:53;0.10;;;0.10;;
13441;SDS011;6793;55.662;13.114;2022-08-21T00:48:21;0.10;;;0.10;;
13441;SDS011;6793;55.662;13.114;2022-08-21T00:50:49;0.10;;;0.10;;
13441;SDS011;6793;55.662;13.114;2022-08-21T00:53:17;0.00;;;0.00;;
13441;SDS011;6793;55.662;13.114;2022-08-21T00:55:45;0.00;;;0.00;;
13441;SDS011;6793;55.662;13.114;2022-08-21T00:58:13;0.00;;;0.00;;
13441;SDS011;6793;55.662;13.114;2022-08-21T01:00:42;0.00;;;0.00;;
13441;SDS011;6793;55.662;13.114;2022-08-21T01:03:10;0.00;;;0.00;;
13441;SDS011;6793;55.662;13.114;2022-08-21T01:05:38;0.00;;;0.00;;
13441;SDS011;6793;55.662;13.114;2022-08-21T01:08:05;0.00;;;0.00;;
13441;SDS011;6793;55.662;13.114;2022-08-21T01:10:33;0.00;;;0.00;;
13441;SDS011;6793;55.662;13.114;2022-08-21T01:13:01;0.00;;;0.00;;
13441;SDS011;6793;55.662;13.114;2022-08-21T01:15:30;0.00;;;0.00;;
13441;SDS011;6793;55.662;13.114;2022-08-21T01:17:58;0.00;;;0.00;;
13441;SDS011;6793;55.662;13.114;2022-08-21T01:20:26;0.00;;;0.00;;
13441;SDS011;6793;55.662;13.114;2022-08-21T01:22:55;0.00;;;0.00;;
13441;SDS011;6793;55.662;13.114;2022-08-21T01:25:22;0.00;;;0.00;;
13441;SDS011;6793;55.662;13.114;2022-08-21T01:27:49;0.00;;;0.00;;
13441;SDS011;6793;55.662;13.114;2022-08-21T01:30:18;0.00;;;0.00;;
13441;SDS011;6793;55.662;13.114;2022-08-21T01:32:46;0.00;;;0.00;;
13441;SDS011;6793;55.662;13.114;2022-08-21T01:35:15;0.00;;;0.00;;
13441;SDS011;6793;55.662;13.114;2022-08-21T01:37:42;0.00;;;0.00;;
13441;SDS011;6793;55.662;13.114;2022-08-21T01:40:11;0.00;;;0.00;;
13441;SDS011;6793;55.662;13.114;2022-08-21T01:42:39;0.00;;;0.00;;
13441;SDS011;6793;55.662;13.114;2022-08-21T01:45:06;0.00;;;0.00;;
13441;SDS011;6793;55.662;13.114;2022-08-21T01:47:34;0.00;;;0.00;;
13441;SDS011;6793;55.662;13.114;2022-08-21T01:50:02;0.00;;;0.00;;
13441;SDS011;6793;55.662;13.114;2022-08-21T01:52:30;0.00;;;0.00;;
13441;SDS011;6793;55.662;13.114;2022-08-21T01:54:57;0.00;;;0.00;;
13441;SDS011;6793;55.662;13.114;2022-08-21T01:57:26;0.00;;;0.00;;
13441;SDS011;6793;55.662;13.114;2022-08-21T01:59:53;0.00;;;0.00;;
13441;SDS011;6793;55.662;13.114;2022-08-21T02:02:20;0.00;;;0.00;;
13441;SDS011;6793;55.662;13.114;2022-08-21T02:04:47;0.00;;;0.00;;
13441;SDS011;6793;55.662;13.114;2022-08-21T02:07:15;0.00;;;0.00;;
13441;SDS011;6793;55.662;13.114;2022-08-21T02:09:42;0.00;;;0.00;;
13441;SDS011;6793;55.662;13.114;2022-08-21T02:12:09;0.00;;;0.00;;
13441;SDS011;6793;55.662;13.114;2022-08-21T02:14:38;0.00;;;0.00;;
13441;SDS011;6793;55.662;13.114;2022-08-21T02:17:05;0.00;;;0.00;;
13441;SDS011;6793;55.662;13.114;2022-08-21T02:19:33;0.00;;;0.00;;
13441;SDS011;6793;55.662;13.114;2022-08-21T02:22:00;0.00;;;0.00;;
13441;SDS011;6793;55.662;13.114;2022-08-21T02:24:27;0.00;;;0.00;;
13441;SDS011;6793;55.662;13.114;2022-08-21T02:26:54;0.00;;;0.00;;
13441;SDS011;6793;55.662;13.114;2022-08-21T02:29:21;0.00;;;0.00;;
13441;SDS011;6793;55.662;13.114;2022-08-21T02:31:50;0.00;;;0.00;;
13441;SDS011;6793;55.662;13.114;2022-08-21T02:34:18;0.00;;;0.00;;
13441;SDS011;6793;55.662;13.114;2022-08-21T02:36:45;0.00;;;0.00;;
13441;SDS011;6793;55.662;13.114;2022-08-21T02:39:12;0.00;;;0.00;;
13441;SDS011;6793;55.662;13.114;2022-08-21T02:41:39;0.00;;;0.00;;
13441;SDS011;6793;55.662;13.114;2022-08-21T02:44:06;0.00;;;0.00;;
13441;SDS011;6793;55.662;13.114;2022-08-21T02:46:33;0.00;;;0.00;;
13441;SDS011;6793;55.662;13.114;2022-08-21T02:49:02;0.00;;;0.00;;
13441;SDS011;6793;55.662;13.114;2022-08-21T02:51:29;0.00;;;0.00;;
13441;SDS011;6793;55.662;13.114;2022-08-21T02:53:56;0.00;;;0.00;;
13441;SDS011;6793;55.662;13.114;2022-08-21T02:56:24;0.00;;;0.00;;
13441;SDS011;6793;55.662;13.114;2022-08-21T02:58:51;0.00;;;0.00;;
13441;SDS011;6793;55.662;13.114;2022-08-21T03:01:19;0.00;;;0.00;;
13441;SDS011;6793;55.662;13.114;2022-08-21T03:03:47;0.00;;;0.00;;
13441;SDS011;6793;55.662;13.114;2022-08-21T03:06:17;0.00;;;0.00;;
13441;SDS011;6793;55.662;13.114;2022-08-21T03:08:45;0.00;;;0.00;;
13441;SDS011;6793;55.662;13.114;2022-08-21T03:11:12;0.00;;;0.00;;
13441;SDS011;6793;55.662;13.114;2022-08-21T03:13:40;0.00;;;0.00;;
13441;SDS011;6793;55.662;13.114;2022-08-21T03:16:07;0.00;;;0.00;;
13441;SDS011;6793;55.662;13.114;2022-08-21T03:18:34;0.00;;;0.00;;
13441;SDS011;6793;55.662;13.114;2022-08-21T03:21:01;0.00;;;0.00;;
13441;SDS011;6793;55.662;13.114;2022-08-21T03:23:30;0.00;;;0.00;;
13441;SDS011;6793;55.662;13.114;2022-08-21T03:25:57;0.00;;;0.00;;
13441;SDS011;6793;55.662;13.114;2022-08-21T03:28:24;0.00;;;0.00;;
13441;SDS011;6793;55.662;13.114;2022-08-21T03:30:52;0.00;;;0.00;;
13441;SDS011;6793;55.662;13.114;2022-08-21T03:33:19;0.00;;;0.00;;
13441;SDS011;6793;55.662;13.114;2022-08-21T03:35:48;0.00;;;0.00;;
13441;SDS011;6793;55.662;13.114;2022-08-21T03:38:16;0.00;;;0.00;;
13441;SDS011;6793;55.662;13.114;2022-08-21T03:40:46;0.00;;;0.00;;
13441;SDS011;6793;55.662;13.114;2022-08-21T03:43:13;0.00;;;0.00;;
13441;SDS011;6793;55.662;13.114;2022-08-21T03:45:40;0.00;;;0.00;;
13441;SDS011;6793;55.662;13.114;2022-08-21T03:48:07;0.00;;;0.00;;
13441;SDS011;6793;55.662;13.114;2022-08-21T03:50:36;0.00;;;0.00;;
13441;SDS011;6793;55.662;13.114;2022-08-21T03:53:03;0.00;;;0.00;;
13441;SDS011;6793;55.662;13.114;2022-08-21T03:55:31;0.00;;;0.00;;
13441;SDS011;6793;55.662;13.114;2022-08-21T03:57:59;0.00;;;0.00;;
13441;SDS011;6793;55.662;13.114;2022-08-21T04:00:27;0.00;;;0.00;;
13441;SDS011;6793;55.662;13.114;2022-08-21T04:02:54;0.00;;;0.00;;
13441;SDS011;6793;55.662;13.114;2022-08-21T04:05:22;0.00;;;0.00;;
13441;SDS011;6793;55.662;13.114;2022-08-21T04:07:55;0.00;;;0.00;;
13441;SDS011;6793;55.662;13.114;2022-08-21T04:10:23;0.00;;;0.00;;
13441;SDS011;6793;55.662;13.114;2022-08-21T04:12:51;0.00;;;0.00;;
13441;SDS011;6793;55.662;13.114;2022-08-21T04:15:20;0.00;;;0.00;;
13441;SDS011;6793;55.662;13.114;2022-08-21T04:17:47;0.00;;;0.00;;
13441;SDS011;6793;55.662;13.114;2022-08-21T04:20:15;0.00;;;0.00;;
13441;SDS011;6793;55.662;13.114;2022-08-21T04:22:43;0.00;;;0.00;;
13441;SDS011;6793;55.662;13.114;2022-08-21T04:25:11;0.00;;;0.00;;
13441;SDS011;6793;55.662;13.114;2022-08-21T04:27:38;0.00;;;0.00;;
13441;SDS011;6793;55.662;13.114;2022-08-21T04:30:06;0.00;;;0.00;;
13441;SDS011;6793;55.662;13.114;2022-08-21T04:32:35;0.00;;;0.00;;
13441;SDS011;6793;55.662;13.114;2022-08-21T04:35:04;0.00;;;0.00;;
13441;SDS011;6793;55.662;13.114;2022-08-21T04:37:31;0.00;;;0.00;;
13441;SDS011;6793;55.662;13.114;2022-08-21T04:39:58;0.00;;;0.00;;
13441;SDS011;6793;55.662;13.114;2022-08-21T04:42:26;0.00;;;0.00;;
13441;SDS011;6793;55.662;13.114;2022-08-21T04:44:54;0.00;;;0.00;;
13441;SDS011;6793;55.662;13.114;2022-08-21T04:47:22;0.00;;;0.00;;
13441;SDS011;6793;55.662;13.114;2022-08-21T04:49:51;0.00;;;0.00;;
13441;SDS011;6793;55.662;13.114;2022-08-21T04:52:19;0.00;;;0.00;;
13441;SDS011;6793;55.662;13.114;2022-08-21T04:54:47;0.00;;;0.00;;
13441;SDS011;6793;55.662;13.114;2022-08-21T04:57:15;0.00;;;0.00;;
13441;SDS011;6793;55.662;13.114;2022-08-21T04:59:45;0.00;;;0.00;;
13441;SDS011;6793;55.662;13.114;2022-08-21T05:02:13;0.00;;;0.00;;
13441;SDS011;6793;55.662;13.114;2022-08-21T05:04:42;0.00;;;0.00;;
13441;SDS011;6793;55.662;13.114;2022-08-21T05:07:12;0.00;;;0.00;;
13441;SDS011;6793;55.662;13.114;2022-08-21T05:09:41;0.00;;;0.00;;
13441;SDS011;6793;55.662;13.114;2022-08-21T05:12:08;0.00;;;0.00;;
13441;SDS011;6793;55.662;13.114;2022-08-21T05:14:36;0.00;;;0.00;;
13441;SDS011;6793;55.662;13.114;2022-08-21T05:17:03;0.00;;;0.00;;
13441;SDS011;6793;55.662;13.114;2022-08-21T05:19:31;0.00;;;0.00;;
13441;SDS011;6793;55.662;13.114;2022-08-21T05:21:59;0.00;;;0.00;;
13441;SDS011;6793;55.662;13.114;2022-08-21T05:24:28;0.00;;;0.00;;
13441;SDS011;6793;55.662;13.114;2022-08-21T05:26:55;0.00;;;0.00;;
13441;SDS011;6793;55.662;13.114;2022-08-21T05:29:22;0.00;;;0.00;;
13441;SDS011;6793;55.662;13.114;2022-08-21T05:31:49;0.00;;;0.00;;
13441;SDS011;6793;55.662;13.114;2022-08-21T05:34:18;0.00;;;0.00;;
13441;SDS011;6793;55.662;13.114;2022-08-21T05:36:45;0.00;;;0.00;;
13441;SDS011;6793;55.662;13.114;2022-08-21T05:39:13;0.00;;;0.00;;
13441;SDS011;6793;55.662;13.114;2022-08-21T05:41:41;0.00;;;0.00;;
13441;SDS011;6793;55.662;13.114;2022-08-21T05:44:08;0.00;;;0.00;;
13441;SDS011;6793;55.662;13.114;2022-08-21T05:46:36;0.00;;;0.00;;
13441;SDS011;6793;55.662;13.114;2022-08-21T05:49:03;0.00;;;0.00;;
13441;SDS011;6793;55.662;13.114;2022-08-21T05:51:30;0.00;;;0.00;;
13441;SDS011;6793;55.662;13.114;2022-08-21T05:53:57;0.00;;;0.00;;
13441;SDS011;6793;55.662;13.114;2022-08-21T05:56:24;0.00;;;0.00;;
13441;SDS011;6793;55.662;13.114;2022-08-21T05:58:53;0.00;;;0.00;;
13441;SDS011;6793;55.662;13.114;2022-08-21T06:01:20;0.00;;;0.00;;
13441;SDS011;6793;55.662;13.114;2022-08-21T06:03:48;0.10;;;0.10;;
13441;SDS011;6793;55.662;13.114;2022-08-21T06:06:15;0.10;;;0.10;;
13441;SDS011;6793;55.662;13.114;2022-08-21T06:08:42;0.10;;;0.10;;
13441;SDS011;6793;55.662;13.114;2022-08-21T06:11:10;0.20;;;0.20;;
13441;SDS011;6793;55.662;13.114;2022-08-21T06:13:37;0.20;;;0.20;;
13441;SDS011;6793;55.662;13.114;2022-08-21T06:16:08;0.22;;;0.22;;
13441;SDS011;6793;55.662;13.114;2022-08-21T06:18:35;0.20;;;0.20;;
13441;SDS011;6793;55.662;13.114;2022-08-21T06:21:03;0.30;;;0.30;;
13441;SDS011;6793;55.662;13.114;2022-08-21T06:23:30;0.20;;;0.20;;
13441;SDS011;6793;55.662;13.114;2022-08-21T06:25:57;0.20;;;0.20;;
13441;SDS011;6793;55.662;13.114;2022-08-21T06:28:25;0.28;;;0.28;;
13441;SDS011;6793;55.662;13.114;2022-08-21T06:30:52;0.30;;;0.30;;
13441;SDS011;6793;55.662;13.114;2022-08-21T06:33:20;0.30;;;0.30;;
13441;SDS011;6793;55.662;13.114;2022-08-21T06:35:48;0.30;;;0.30;;
13441;SDS011;6793;55.662;13.114;2022-08-21T06:38:15;0.30;;;0.30;;
13441;SDS011;6793;55.662;13.114;2022-08-21T06:40:43;0.30;;;0.30;;
13441;SDS011;6793;55.662;13.114;2022-08-21T06:43:11;0.30;;;0.30;;
13441;SDS011;6793;55.662;13.114;2022-08-21T06:45:39;0.38;;;0.38;;
13441;SDS011;6793;55.662;13.114;2022-08-21T06:48:06;0.35;;;0.35;;
13441;SDS011;6793;55.662;13.114;2022-08-21T06:50:34;0.40;;;0.40;;
13441;SDS011;6793;55.662;13.114;2022-08-21T06:53:02;0.40;;;0.40;;
13441;SDS011;6793;55.662;13.114;2022-08-21T06:55:30;0.40;;;0.40;;
13441;SDS011;6793;55.662;13.114;2022-08-21T06:57:57;0.30;;;0.30;;
13441;SDS011;6793;55.662;13.114;2022-08-21T07:00:24;0.30;;;0.30;;
13441;SDS011;6793;55.662;13.114;2022-08-21T07:02:51;0.28;;;0.28;;
13441;SDS011;6793;55.662;13.114;2022-08-21T07:05:18;0.30;;;0.30;;
13441;SDS011;6793;55.662;13.114;2022-08-21T07:07:47;0.32;;;0.32;;
13441;SDS011;6793;55.662;13.114;2022-08-21T07:10:14;0.30;;;0.30;;
13441;SDS011;6793;55.662;13.114;2022-08-21T07:12:41;0.30;;;0.30;;
13441;SDS011;6793;55.662;13.114;2022-08-21T07:15:09;0.30;;;0.30;;
13441;SDS011;6793;55.662;13.114;2022-08-21T07:17:36;0.30;;;0.30;;
13441;SDS011;6793;55.662;13.114;2022-08-21T07:20:04;0.50;;;0.50;;
13441;SDS011;6793;55.662;13.114;2022-08-21T07:22:31;0.32;;;0.32;;
13441;SDS011;6793;55.662;13.114;2022-08-21T07:25:00;0.35;;;0.35;;
13441;SDS011;6793;55.662;13.114;2022-08-21T07:27:27;0.40;;;0.40;;
13441;SDS011;6793;55.662;13.114;2022-08-21T07:29:54;0.30;;;0.30;;
13441;SDS011;6793;55.662;13.114;2022-08-21T07:32:21;0.30;;;0.30;;
13441;SDS011;6793;55.662;13.114;2022-08-21T07:34:49;0.30;;;0.30;;
13441;SDS011;6793;55.662;13.114;2022-08-21T07:37:16;0.30;;;0.30;;
13441;SDS011;6793;55.662;13.114;2022-08-21T07:39:43;0.40;;;0.40;;
13441;SDS011;6793;55.662;13.114;2022-08-21T07:42:15;0.40;;;0.40;;
13441;SDS011;6793;55.662;13.114;2022-08-21T07:44:42;0.30;;;0.30;;
13441;SDS011;6793;55.662;13.114;2022-08-21T07:47:09;0.30;;;0.30;;
13441;SDS011;6793;55.662;13.114;2022-08-21T07:49:36;0.30;;;0.30;;
13441;SDS011;6793;55.662;13.114;2022-08-21T07:52:03;0.30;;;0.30;;
13441;SDS011;6793;55.662;13.114;2022-08-21T07:54:31;0.30;;;0.30;;
13441;SDS011;6793;55.662;13.114;2022-08-21T07:56:58;0.40;;;0.40;;
13441;SDS011;6793;55.662;13.114;2022-08-21T07:59:26;0.40;;;0.40;;
13441;SDS011;6793;55.662;13.114;2022-08-21T08:01:54;0.40;;;0.40;;
13441;SDS011;6793;55.662;13.114;2022-08-21T08:04:21;0.30;;;0.30;;
13441;SDS011;6793;55.662;13.114;2022-08-21T08:06:48;0.30;;;0.30;;
13441;SDS011;6793;55.662;13.114;2022-08-21T08:09:16;0.30;;;0.30;;
13441;SDS011;6793;55.662;13.114;2022-08-21T08:11:43;0.30;;;0.30;;
13441;SDS011;6793;55.662;13.114;2022-08-21T08:14:12;0.30;;;0.30;;
13441;SDS011;6793;55.662;13.114;2022-08-21T08:16:42;0.30;;;0.30;;
13441;SDS011;6793;55.662;13.114;2022-08-21T08:19:09;0.30;;;0.30;;
13441;SDS011;6793;55.662;13.114;2022-08-21T08:21:36;0.20;;;0.20;;
13441;SDS011;6793;55.662;13.114;2022-08-21T08:24:03;0.30;;;0.30;;
13441;SDS011;6793;55.662;13.114;2022-08-21T08:26:31;0.20;;;0.20;;
13441;SDS011;6793;55.662;13.114;2022-08-21T08:28:58;0.28;;;0.28;;
13441;SDS011;6793;55.662;13.114;2022-08-21T08:31:25;0.20;;;0.20;;
13441;SDS011;6793;55.662;13.114;2022-08-21T08:33:53;0.25;;;0.25;;
13441;SDS011;6793;55.662;13.114;2022-08-21T08:36:21;0.20;;;0.20;;
13441;SDS011;6793;55.662;13.114;2022-08-21T08:38:57;0.20;;;0.20;;
13441;SDS011;6793;55.662;13.114;2022-08-21T08:41:25;0.20;;;0.20;;
13441;SDS011;6793;55.662;13.114;2022-08-21T08:43:53;0.20;;;0.20;;
13441;SDS011;6793;55.662;13.114;2022-08-21T08:46:24;0.20;;;0.20;;
13441;SDS011;6793;55.662;13.114;2022-08-21T08:48:55;0.30;;;0.30;;
13441;SDS011;6793;55.662;13.114;2022-08-21T08:51:25;0.30;;;0.30;;
13441;SDS011;6793;55.662;13.114;2022-08-21T08:53:55;0.30;;;0.30;;
13441;SDS011;6793;55.662;13.114;2022-08-21T08:56:27;0.32;;;0.32;;
13441;SDS011;6793;55.662;13.114;2022-08-21T08:58:55;0.30;;;0.30;;
13441;SDS011;6793;55.662;13.114;2022-08-21T09:01:24;0.30;;;0.30;;
13441;SDS011;6793;55.662;13.114;2022-08-21T09:03:51;0.25;;;0.25;;
13441;SDS011;6793;55.662;13.114;2022-08-21T09:06:23;0.25;;;0.25;;
13441;SDS011;6793;55.662;13.114;2022-08-21T09:08:54;0.30;;;0.30;;
13441;SDS011;6793;55.662;13.114;2022-08-21T09:11:26;0.28;;;0.28;;
13441;SDS011;6793;55.662;13.114;2022-08-21T09:14:00;0.20;;;0.20;;
13441;SDS011;6793;55.662;13.114;2022-08-21T09:16:33;0.22;;;0.22;;
13441;SDS011;6793;55.662;13.114;2022-08-21T09:19:03;0.20;;;0.20;;
13441;SDS011;6793;55.662;13.114;2022-08-21T09:21:37;0.20;;;0.20;;
13441;SDS011;6793;55.662;13.114;2022-08-21T09:24:16;0.20;;;0.20;;
13441;SDS011;6793;55.662;13.114;2022-08-21T09:26:47;0.10;;;0.10;;
13441;SDS011;6793;55.662;13.114;2022-08-21T09:29:15;0.20;;;0.20;;
13441;SDS011;6793;55.662;13.114;2022-08-21T09:31:45;0.20;;;0.20;;
13441;SDS011;6793;55.662;13.114;2022-08-21T09:34:23;0.13;;;0.13;;
13441;SDS011;6793;55.662;13.114;2022-08-21T09:36:52;0.20;;;0.20;;
13441;SDS011;6793;55.662;13.114;2022-08-21T09:39:23;0.20;;;0.20;;
13441;SDS011;6793;55.662;13.114;2022-08-21T09:41:55;0.20;;;0.20;;
13441;SDS011;6793;55.662;13.114;2022-08-21T09:44:24;0.20;;;0.20;;
13441;SDS011;6793;55.662;13.114;2022-08-21T09:46:52;0.22;;;0.22;;
13441;SDS011;6793;55.662;13.114;2022-08-21T09:49:26;0.20;;;0.20;;
13441;SDS011;6793;55.662;13.114;2022-08-21T09:51:55;0.30;;;0.30;;
13441;SDS011;6793;55.662;13.114;2022-08-21T09:54:24;0.30;;;0.30;;
13441;SDS011;6793;55.662;13.114;2022-08-21T09:56:53;0.30;;;0.30;;
13441;SDS011;6793;55.662;13.114;2022-08-21T09:59:41;0.30;;;0.30;;
13441;SDS011;6793;55.662;13.114;2022-08-21T10:02:25;0.30;;;0.30;;
13441;SDS011;6793;55.662;13.114;2022-08-21T10:04:54;0.30;;;0.30;;
13441;SDS011;6793;55.662;13.114;2022-08-21T10:07:24;0.28;;;0.28;;
13441;SDS011;6793;55.662;13.114;2022-08-21T10:09:58;0.30;;;0.30;;
13441;SDS011;6793;55.662;13.114;2022-08-21T10:12:28;0.20;;;0.20;;
13441;SDS011;6793;55.662;13.114;2022-08-21T10:14:59;0.30;;;0.30;;
13441;SDS011;6793;55.662;13.114;2022-08-21T10:17:31;0.30;;;0.30;;
13441;SDS011;6793;55.662;13.114;2022-08-21T10:20:03;0.20;;;0.20;;
13441;SDS011;6793;55.662;13.114;2022-08-21T10:22:34;0.20;;;0.20;;
13441;SDS011;6793;55.662;13.114;2022-08-21T10:25:06;0.30;;;0.30;;
13441;SDS011;6793;55.662;13.114;2022-08-21T10:27:37;0.30;;;0.30;;
13441;SDS011;6793;55.662;13.114;2022-08-21T10:30:08;0.30;;;0.30;;
13441;SDS011;6793;55.662;13.114;2022-08-21T10:32:50;0.35;;;0.35;;
13441;SDS011;6793;55.662;13.114;2022-08-21T10:35:24;0.30;;;0.30;;
13441;SDS011;6793;55.662;13.114;2022-08-21T10:38:01;0.30;;;0.30;;
13441;SDS011;6793;55.662;13.114;2022-08-21T10:40:29;0.40;;;0.40;;
13441;SDS011;6793;55.662;13.114;2022-08-21T10:43:09;0.40;;;0.40;;
13441;SDS011;6793;55.662;13.114;2022-08-21T10:45:43;0.30;;;0.30;;
13441;SDS011;6793;55.662;13.114;2022-08-21T10:48:15;0.40;;;0.40;;
13441;SDS011;6793;55.662;13.114;2022-08-21T10:50:46;0.30;;;0.30;;
13441;SDS011;6793;55.662;13.114;2022-08-21T10:53:19;0.30;;;0.30;;
13441;SDS011;6793;55.662;13.114;2022-08-21T10:55:48;0.40;;;0.40;;
13441;SDS011;6793;55.662;13.114;2022-08-21T10:58:18;0.40;;;0.40;;
13441;SDS011;6793;55.662;13.114;2022-08-21T11:00:47;0.30;;;0.30;;
13441;SDS011;6793;55.662;13.114;2022-08-21T11:03:16;0.30;;;0.30;;
13441;SDS011;6793;55.662;13.114;2022-08-21T11:05:45;0.30;;;0.30;;
13441;SDS011;6793;55.662;13.114;2022-08-21T11:08:15;0.30;;;0.30;;
13441;SDS011;6793;55.662;13.114;2022-08-21T11:10:47;0.40;;;0.40;;
13441;SDS011;6793;55.662;13.114;2022-08-21T11:13:17;0.40;;;0.40;;
13441;SDS011;6793;55.662;13.114;2022-08-21T11:15:48;0.40;;;0.40;;
13441;SDS011;6793;55.662;13.114;2022-08-21T11:18:20;0.30;;;0.30;;
13441;SDS011;6793;55.662;13.114;2022-08-21T11:20:49;0.30;;;0.30;;
13441;SDS011;6793;55.662;13.114;2022-08-21T11:23:18;0.30;;;0.30;;
13441;SDS011;6793;55.662;13.114;2022-08-21T11:25:49;0.30;;;0.30;;
13441;SDS011;6793;55.662;13.114;2022-08-21T11:28:20;0.40;;;0.40;;
13441;SDS011;6793;55.662;13.114;2022-08-21T11:30:52;0.30;;;0.30;;
13441;SDS011;6793;55.662;13.114;2022-08-21T11:33:30;0.35;;;0.35;;
13441;SDS011;6793;55.662;13.114;2022-08-21T11:36:00;0.30;;;0.30;;
13441;SDS011;6793;55.662;13.114;2022-08-21T11:38:33;0.20;;;0.20;;
13441;SDS011;6793;55.662;13.114;2022-08-21T11:41:07;0.30;;;0.30;;
13441;SDS011;6793;55.662;13.114;2022-08-21T11:43:38;0.20;;;0.20;;
13441;SDS011;6793;55.662;13.114;2022-08-21T11:46:16;0.20;;;0.20;;
13441;SDS011;6793;55.662;13.114;2022-08-21T11:48:48;0.20;;;0.20;;
13441;SDS011;6793;55.662;13.114;2022-08-21T11:51:21;0.20;;;0.20;;
13441;SDS011;6793;55.662;13.114;2022-08-21T11:53:50;0.20;;;0.20;;
13441;SDS011;6793;55.662;13.114;2022-08-21T11:56:23;0.20;;;0.20;;
13441;SDS011;6793;55.662;13.114;2022-08-21T11:58:52;0.20;;;0.20;;
13441;SDS011;6793;55.662;13.114;2022-08-21T12:01:21;0.20;;;0.20;;
13441;SDS011;6793;55.662;13.114;2022-08-21T12:03:51;0.20;;;0.20;;
13441;SDS011;6793;55.662;13.114;2022-08-21T12:06:27;0.20;;;0.20;;
13441;SDS011;6793;55.662;13.114;2022-08-21T12:08:57;0.20;;;0.20;;
13441;SDS011;6793;55.662;13.114;2022-08-21T12:11:27;0.30;;;0.30;;
13441;SDS011;6793;55.662;13.114;2022-08-21T12:13:56;0.25;;;0.25;;
13441;SDS011;6793;55.662;13.114;2022-08-21T12:16:30;0.20;;;0.20;;
13441;SDS011;6793;55.662;13.114;2022-08-21T12:19:05;0.30;;;0.30;;
13441;SDS011;6793;55.662;13.114;2022-08-21T12:21:32;0.28;;;0.28;;
13441;SDS011;6793;55.662;13.114;2022-08-21T12:24:02;0.30;;;0.30;;
13441;SDS011;6793;55.662;13.114;2022-08-21T12:26:32;0.40;;;0.40;;
13441;SDS011;6793;55.662;13.114;2022-08-21T12:29:03;0.30;;;0.30;;
13441;SDS011;6793;55.662;13.114;2022-08-21T12:31:31;0.30;;;0.30;;
13441;SDS011;6793;55.662;13.114;2022-08-21T12:33:59;0.25;;;0.25;;
13441;SDS011;6793;55.662;13.114;2022-08-21T12:36:34;0.20;;;0.20;;
13441;SDS011;6793;55.662;13.114;2022-08-21T12:39:10;0.20;;;0.20;;
13441;SDS011;6793;55.662;13.114;2022-08-21T12:41:41;0.20;;;0.20;;
13441;SDS011;6793;55.662;13.114;2022-08-21T12:44:10;0.20;;;0.20;;
13441;SDS011;6793;55.662;13.114;2022-08-21T12:46:42;0.20;;;0.20;;
13441;SDS011;6793;55.662;13.114;2022-08-21T12:49:13;0.20;;;0.20;;
13441;SDS011;6793;55.662;13.114;2022-08-21T12:51:45;0.30;;;0.30;;
13441;SDS011;6793;55.662;13.114;2022-08-21T12:54:21;0.20;;;0.20;;
13441;SDS011;6793;55.662;13.114;2022-08-21T12:56:56;0.20;;;0.20;;
13441;SDS011;6793;55.662;13.114;2022-08-21T12:59:23;0.30;;;0.30;;
13441;SDS011;6793;55.662;13.114;2022-08-21T13:01:51;0.30;;;0.30;;
13441;SDS011;6793;55.662;13.114;2022-08-21T13:04:21;0.30;;;0.30;;
13441;SDS011;6793;55.662;13.114;2022-08-21T13:06:53;0.20;;;0.20;;
13441;SDS011;6793;55.662;13.114;2022-08-21T13:09:22;0.30;;;0.30;;
13441;SDS011;6793;55.662;13.114;2022-08-21T13:11:50;0.20;;;0.20;;
13441;SDS011;6793;55.662;13.114;2022-08-21T13:14:23;0.30;;;0.30;;
13441;SDS011;6793;55.662;13.114;2022-08-21T13:16:52;0.30;;;0.30;;
13441;SDS011;6793;55.662;13.114;2022-08-21T13:19:21;0.30;;;0.30;;
13441;SDS011;6793;55.662;13.114;2022-08-21T13:21:49;0.30;;;0.30;;
13441;SDS011;6793;55.662;13.114;2022-08-21T13:24:17;0.20;;;0.20;;
13441;SDS011;6793;55.662;13.114;2022-08-21T13:26:45;0.30;;;0.30;;
13441;SDS011;6793;55.662;13.114;2022-08-21T13:29:14;0.30;;;0.30;;
13441;SDS011;6793;55.662;13.114;2022-08-21T13:31:48;0.20;;;0.20;;
13441;SDS011;6793;55.662;13.114;2022-08-21T13:34:16;0.20;;;0.20;;
13441;SDS011;6793;55.662;13.114;2022-08-21T13:36:44;0.20;;;0.20;;
13441;SDS011;6793;55.662;13.114;2022-08-21T13:39:12;0.20;;;0.20;;
13441;SDS011;6793;55.662;13.114;2022-08-21T13:41:42;0.20;;;0.20;;
13441;SDS011;6793;55.662;13.114;2022-08-21T13:44:14;0.30;;;0.30;;
13441;SDS011;6793;55.662;13.114;2022-08-21T13:46:41;0.30;;;0.30;;
13441;SDS011;6793;55.662;13.114;2022-08-21T13:49:12;0.20;;;0.20;;
13441;SDS011;6793;55.662;13.114;2022-08-21T13:51:40;0.20;;;0.20;;
13441;SDS011;6793;55.662;13.114;2022-08-21T13:54:20;0.20;;;0.20;;
13441;SDS011;6793;55.662;13.114;2022-08-21T13:56:49;0.20;;;0.20;;
13441;SDS011;6793;55.662;13.114;2022-08-21T13:59:27;0.10;;;0.10;;
13441;SDS011;6793;55.662;13.114;2022-08-21T14:01:55;0.10;;;0.10;;
13441;SDS011;6793;55.662;13.114;2022-08-21T14:04:26;0.20;;;0.20;;
13441;SDS011;6793;55.662;13.114;2022-08-21T14:06:54;0.30;;;0.30;;
13441;SDS011;6793;55.662;13.114;2022-08-21T14:09:23;0.30;;;0.30;;
13441;SDS011;6793;55.662;13.114;2022-08-21T14:11:52;0.20;;;0.20;;
13441;SDS011;6793;55.662;13.114;2022-08-21T14:14:21;0.30;;;0.30;;
13441;SDS011;6793;55.662;13.114;2022-08-21T14:16:53;0.20;;;0.20;;
13441;SDS011;6793;55.662;13.114;2022-08-21T14:19:21;0.20;;;0.20;;
13441;SDS011;6793;55.662;13.114;2022-08-21T14:21:50;0.20;;;0.20;;
13441;SDS011;6793;55.662;13.114;2022-08-21T14:24:25;0.20;;;0.20;;
13441;SDS011;6793;55.662;13.114;2022-08-21T14:26:53;0.20;;;0.20;;
13441;SDS011;6793;55.662;13.114;2022-08-21T14:29:21;0.10;;;0.10;;
13441;SDS011;6793;55.662;13.114;2022-08-21T14:31:50;0.20;;;0.20;;
13441;SDS011;6793;55.662;13.114;2022-08-21T14:34:18;0.30;;;0.30;;
13441;SDS011;6793;55.662;13.114;2022-08-21T14:36:46;0.30;;;0.30;;
13441;SDS011;6793;55.662;13.114;2022-08-21T14:39:15;0.20;;;0.20;;
13441;SDS011;6793;55.662;13.114;2022-08-21T14:41:42;0.20;;;0.20;;
13441;SDS011;6793;55.662;13.114;2022-08-21T14:44:11;0.20;;;0.20;;
13441;SDS011;6793;55.662;13.114;2022-08-21T14:46:38;0.20;;;0.20;;
13441;SDS011;6793;55.662;13.114;2022-08-21T14:49:05;0.20;;;0.20;;
13441;SDS011;6793;55.662;13.114;2022-08-21T14:51:32;0.20;;;0.20;;
13441;SDS011;6793;55.662;13.114;2022-08-21T14:53:59;0.10;;;0.10;;
13441;SDS011;6793;55.662;13.114;2022-08-21T14:56:28;0.20;;;0.20;;
13441;SDS011;6793;55.662;13.114;2022-08-21T14:58:55;0.20;;;0.20;;